Time;durP1;ratioP1;P1;durP2;ratioP2;P2;SDS_P1;SDS_P2;PMS_P1;PMS_P2;Temp;Humidity;BMP_temperature;BMP_pressure;BME280_temperature;BME280_humidity;BME280_pressure;Samples;Min_cycle;Max_cycle;Signal;HPM_P1;HPM_P2
2023/03/17 00:01:52;;;;;;;4.90;1.95;;;8.70;99.90;;;;;;5110428;27;20497;-77
2023/03/17 00:04:18;;;;;;;4.45;2.20;;;8.20;99.90;;;;;;5127898;27;20050;-77
2023/03/17 00:06:45;;;;;;;6.55;2.17;;;8.20;99.90;;;;;;5111080;27;20039;-77
2023/03/17 00:09:17;;;;;;;3.55;1.77;;;8.20;99.90;;;;;;5109072;27;20066;-77
2023/03/17 00:11:44;;;;;;;4.72;1.88;;;9.40;99.90;;;;;;5129376;27;20043;-77
2023/03/17 00:14:10;;;;;;;6.35;2.17;;;8.90;99.90;;;;;;5109049;27;20044;-77
2023/03/17 00:16:41;;;;;;;5.88;2.08;;;8.20;99.90;;;;;;5128599;27;20039;-77
2023/03/17 00:19:15;;;;;;;3.72;1.60;;;8.20;99.90;;;;;;5128818;27;20043;-77
2023/03/17 00:21:41;;;;;;;6.00;2.13;;;8.30;99.90;;;;;;5108798;27;20039;-77
2023/03/17 00:24:10;;;;;;;7.07;2.10;;;8.30;99.90;;;;;;5093218;27;20047;-77
2023/03/17 00:26:36;;;;;;;6.03;1.80;;;8.30;99.90;;;;;;5109007;27;20460;-77
2023/03/17 00:29:04;;;;;;;7.53;3.13;;;8.30;99.90;;;;;;5110524;27;20128;-78
2023/03/17 00:31:33;;;;;;;2.90;1.75;;;8.30;99.90;;;;;;5109261;27;20080;-78
2023/03/17 00:33:59;;;;;;;5.07;1.60;;;8.90;99.90;;;;;;5091975;27;20043;-77
2023/03/17 00:36:30;;;;;;;6.00;1.77;;;8.30;99.90;;;;;;5109927;27;20047;-77
2023/03/17 00:38:57;;;;;;;5.43;1.95;;;8.30;99.90;;;;;;5108673;27;20368;-77
2023/03/17 00:41:23;;;;;;;5.05;2.00;;;8.30;99.90;;;;;;5110503;27;20470;-77
2023/03/17 00:43:52;;;;;;;5.40;1.77;;;8.30;99.90;;;;;;5126863;27;20110;-77
2023/03/17 00:46:34;;;;;;;3.60;1.92;;;8.30;99.90;;;;;;5109790;27;20043;-77
2023/03/17 00:49:21;;;;;;;4.85;1.58;;;8.30;99.90;;;;;;5092804;27;20561;-77
2023/03/17 00:51:48;;;;;;;5.63;2.15;;;9.40;99.90;;;;;;5108521;27;20058;-77
2023/03/17 00:54:15;;;;;;;3.55;1.80;;;9.00;99.90;;;;;;5109927;27;20043;-76
2023/03/17 00:56:41;;;;;;;4.25;1.80;;;9.00;99.90;;;;;;5108047;27;20078;-77
2023/03/17 00:59:28;;;;;;;5.63;2.17;;;8.30;99.90;;;;;;5092930;27;20073;-76
2023/03/17 01:01:55;;;;;;;6.32;2.05;;;8.20;99.90;;;;;;5109117;27;20501;-77
2023/03/17 01:04:21;;;;;;;6.30;2.55;;;8.20;99.90;;;;;;5108215;27;20047;-77
2023/03/17 01:06:48;;;;;;;7.35;2.03;;;8.20;99.90;;;;;;5128169;27;20049;-78
2023/03/17 01:09:17;;;;;;;3.90;1.70;;;8.00;99.90;;;;;;5107665;27;20047;-78
2023/03/17 01:11:43;;;;;;;5.13;2.10;;;8.30;99.90;;;;;;5128214;27;20047;-79
2023/03/17 01:14:11;;;;;;;5.60;1.58;;;8.30;99.90;;;;;;5104557;28;20093;-77
2023/03/17 01:16:37;;;;;;;5.05;2.10;;;8.30;99.90;;;;;;5107094;28;20472;-77
2023/03/17 01:19:04;;;;;;;4.07;1.83;;;8.50;99.90;;;;;;5106900;28;20491;-77
2023/03/17 01:21:30;;;;;;;4.65;1.95;;;8.30;99.90;;;;;;5087419;28;20044;-78
2023/03/17 01:23:56;;;;;;;2.28;1.63;;;8.30;99.90;;;;;;5105874;28;20046;-78
2023/03/17 01:26:22;;;;;;;4.20;2.25;;;8.40;99.90;;;;;;5103718;28;20047;-79
2023/03/17 01:28:48;;;;;;;3.50;2.15;;;8.60;99.90;;;;;;5089043;28;20294;-76
2023/03/17 01:31:13;;;;;;;6.95;2.13;;;8.50;99.90;;;;;;5104490;28;20122;-76
2023/03/17 01:33:39;;;;;;;7.50;2.50;;;8.40;99.90;;;;;;5106560;27;20040;-76
2023/03/17 01:36:05;;;;;;;3.22;1.50;;;8.40;99.90;;;;;;5106544;28;20351;-77
2023/03/17 01:38:31;;;;;;;2.28;1.70;;;8.40;99.90;;;;;;5104312;28;20044;-77
2023/03/17 01:40:57;;;;;;;5.72;2.63;;;8.40;99.90;;;;;;5105591;28;20054;-78
2023/03/17 01:43:28;;;;;;;2.55;1.73;;;8.40;99.90;;;;;;5105111;28;20039;-79
2023/03/17 01:46:28;;;;;;;5.88;2.10;;;8.40;99.90;;;;;;5106375;27;20386;-78
2023/03/17 01:49:16;;;;;;;5.75;1.95;;;8.40;99.90;;;;;;5105057;28;20040;-77
2023/03/17 01:51:53;;;;;;;6.97;2.00;;;8.40;99.90;;;;;;5104300;28;20043;-77
2023/03/17 01:54:36;;;;;;;6.63;1.90;;;8.40;99.90;;;;;;5105971;28;20122;-77
2023/03/17 01:57:14;;;;;;;3.45;1.67;;;8.40;99.90;;;;;;5105718;28;20106;-77
2023/03/17 01:59:52;;;;;;;4.80;1.95;;;8.10;99.90;;;;;;5104390;28;20048;-77
2023/03/17 02:02:31;;;;;;;4.70;1.77;;;8.40;99.90;;;;;;5106540;28;20451;-77
2023/03/17 02:04:58;;;;;;;3.72;1.77;;;8.40;99.90;;;;;;5088223;28;20100;-77
2023/03/17 02:07:25;;;;;;;6.05;1.92;;;8.60;99.90;;;;;;5105295;28;20573;-77
2023/03/17 02:09:52;;;;;;;2.83;1.58;;;8.70;99.90;;;;;;5105347;28;20138;-77
2023/03/17 02:12:21;;;;;;;3.90;1.77;;;8.40;99.90;;;;;;5103935;28;20054;-77
2023/03/17 02:14:47;;;;;;;4.45;2.20;;;8.40;99.90;;;;;;5104427;28;20060;-77
2023/03/17 02:17:13;;;;;;;3.70;1.90;;;8.40;99.90;;;;;;5104836;27;20119;-77
2023/03/17 02:19:39;;;;;;;5.88;1.92;;;8.30;99.90;;;;;;5088487;28;20054;-77
2023/03/17 02:22:05;;;;;;;3.65;1.98;;;9.60;99.90;;;;;;5104519;28;20047;-77
2023/03/17 02:24:35;;;;;;;4.43;2.20;;;8.80;99.90;;;;;;5104630;28;20256;-77
2023/03/17 02:27:30;;;;;;;6.60;1.77;;;8.50;99.90;;;;;;5087186;28;20082;-77
2023/03/17 02:29:56;;;;;;;3.80;1.75;;;8.30;99.90;;;;;;5104966;28;20390;-77
2023/03/17 02:32:22;;;;;;;4.03;1.88;;;8.80;99.90;;;;;;5104986;28;20050;-77
2023/03/17 02:34:48;;;;;;;4.95;2.17;;;8.30;99.90;;;;;;5104167;28;20074;-77
2023/03/17 02:37:16;;;;;;;3.30;1.52;;;8.30;99.90;;;;;;5105144;28;20125;-77
2023/03/17 02:39:42;;;;;;;4.85;1.40;;;8.80;99.90;;;;;;5105112;28;20043;-77
2023/03/17 02:42:08;;;;;;;4.93;1.98;;;8.20;99.90;;;;;;5103642;28;20040;-77
2023/03/17 02:44:34;;;;;;;5.18;2.08;;;8.20;99.90;;;;;;5104170;28;20146;-77
2023/03/17 02:47:00;;;;;;;5.10;2.10;;;8.20;99.90;;;;;;5086043;28;20055;-77
2023/03/17 02:49:27;;;;;;;2.58;1.90;;;8.20;99.90;;;;;;5104924;28;20043;-77
2023/03/17 02:51:52;;;;;;;4.57;2.13;;;8.10;99.90;;;;;;5103211;28;20036;-76
2023/03/17 02:54:19;;;;;;;4.75;1.90;;;8.20;99.90;;;;;;5105928;28;20485;-77
2023/03/17 02:56:44;;;;;;;5.90;2.50;;;8.20;99.90;;;;;;5104527;28;20058;-77
2023/03/17 02:59:10;;;;;;;7.28;2.80;;;8.20;99.90;;;;;;5108017;28;20040;-77
2023/03/17 03:01:38;;;;;;;5.00;1.58;;;8.10;99.90;;;;;;5108020;28;20047;-77
2023/03/17 03:04:04;;;;;;;7.18;2.22;;;8.10;99.90;;;;;;5090060;28;20134;-77
2023/03/17 03:06:30;;;;;;;4.30;2.08;;;8.20;99.90;;;;;;5109754;28;20051;-77
2023/03/17 03:08:56;;;;;;;2.65;1.73;;;8.10;99.90;;;;;;5107065;28;20131;-76
2023/03/17 03:11:22;;;;;;;4.72;2.05;;;8.10;99.90;;;;;;5110230;28;20046;-77
2023/03/17 03:13:48;;;;;;;2.83;1.63;;;8.10;99.90;;;;;;5106706;28;20052;-77
2023/03/17 03:16:14;;;;;;;5.78;2.40;;;8.00;99.90;;;;;;5107867;28;20204;-77
2023/03/17 03:18:40;;;;;;;5.95;2.20;;;9.30;99.90;;;;;;5109337;28;20047;-77
2023/03/17 03:21:06;;;;;;;3.95;1.55;;;8.00;99.90;;;;;;5108162;28;20096;-77
2023/03/17 03:23:32;;;;;;;6.95;2.15;;;8.00;99.90;;;;;;5109787;28;20042;-77
2023/03/17 03:25:58;;;;;;;5.57;2.20;;;8.00;99.90;;;;;;5107984;28;20031;-77
2023/03/17 03:28:24;;;;;;;5.72;2.08;;;8.00;99.90;;;;;;5109647;28;20043;-78
2023/03/17 03:30:50;;;;;;;5.30;1.88;;;8.40;99.90;;;;;;5108015;28;20420;-77
2023/03/17 03:33:16;;;;;;;3.60;1.95;;;8.00;99.90;;;;;;5109129;28;20115;-77
2023/03/17 03:35:43;;;;;;;3.65;2.13;;;8.00;99.90;;;;;;5109178;28;20427;-78
2023/03/17 03:38:09;;;;;;;4.88;2.55;;;8.70;99.90;;;;;;5106588;28;20040;-78
2023/03/17 03:40:35;;;;;;;7.78;3.15;;;8.60;99.90;;;;;;5109099;28;20040;-77
2023/03/17 03:43:01;;;;;;;6.15;2.38;;;8.10;99.90;;;;;;5107635;28;20077;-77
2023/03/17 03:45:27;;;;;;;4.63;1.88;;;8.90;99.90;;;;;;5109739;28;20042;-77
2023/03/17 03:47:53;;;;;;;4.10;1.92;;;9.20;99.90;;;;;;5107120;28;20051;-77
2023/03/17 03:50:20;;;;;;;6.18;1.98;;;8.40;99.90;;;;;;5109146;28;20035;-77
2023/03/17 03:52:45;;;;;;;6.05;2.38;;;7.90;99.90;;;;;;5108690;28;20040;-77
2023/03/17 03:55:11;;;;;;;7.35;2.30;;;7.90;99.90;;;;;;5107817;28;20048;-77
2023/03/17 03:57:37;;;;;;;4.05;2.00;;;8.30;99.90;;;;;;5107280;28;20044;-77
2023/03/17 04:00:04;;;;;;;5.88;2.30;;;7.90;99.90;;;;;;5088864;28;20047;-78
2023/03/17 04:02:30;;;;;;;2.65;1.55;;;7.90;99.90;;;;;;5107621;28;20079;-78
2023/03/17 04:04:56;;;;;;;4.85;2.33;;;7.90;99.90;;;;;;5107085;28;20055;-77
2023/03/17 04:07:23;;;;;;;4.13;2.00;;;7.90;99.90;;;;;;5109006;28;20031;-77
2023/03/17 04:09:48;;;;;;;5.03;2.17;;;8.40;99.90;;;;;;5105466;28;20086;-77
2023/03/17 04:12:15;;;;;;;5.30;1.85;;;7.90;99.90;;;;;;5106299;28;20147;-77
2023/03/17 04:14:43;;;;;;;7.38;2.20;;;7.90;99.90;;;;;;5126760;27;20546;-77
2023/03/17 04:17:10;;;;;;;5.63;2.00;;;7.90;99.90;;;;;;5109417;27;20043;-77
2023/03/17 04:19:37;;;;;;;5.38;2.20;;;7.90;99.90;;;;;;5129551;27;20048;-77
2023/03/17 04:22:03;;;;;;;6.80;2.38;;;7.90;99.90;;;;;;5108610;27;20050;-77
2023/03/17 04:24:29;;;;;;;5.25;1.80;;;7.90;99.90;;;;;;5128802;27;20075;-77
2023/03/17 04:26:55;;;;;;;5.63;2.47;;;8.20;99.90;;;;;;5092593;27;20547;-77
2023/03/17 04:29:21;;;;;;;4.72;2.13;;;7.90;99.90;;;;;;5092174;27;20050;-77
2023/03/17 04:31:47;;;;;;;9.10;2.05;;;7.80;99.90;;;;;;5076283;27;20128;-77
2023/03/17 04:34:16;;;;;;;4.82;2.75;;;7.90;99.90;;;;;;5074840;27;20482;-77
2023/03/17 04:36:44;;;;;;;4.20;2.45;;;8.20;99.90;;;;;;5128948;27;20343;-77
2023/03/17 04:39:09;;;;;;;6.65;2.70;;;7.80;99.90;;;;;;5126947;27;20047;-78
2023/03/17 04:41:35;;;;;;;6.72;2.42;;;7.80;99.90;;;;;;5093014;27;20450;-79
2023/03/17 04:44:01;;;;;;;2.70;2.03;;;7.80;99.90;;;;;;5127783;27;20054;-77
2023/03/17 04:46:27;;;;;;;4.47;2.28;;;7.80;99.90;;;;;;5127417;27;20139;-78
2023/03/17 04:48:53;;;;;;;3.60;2.17;;;7.70;99.90;;;;;;5109896;27;20058;-77
2023/03/17 04:51:19;;;;;;;8.45;2.83;;;8.10;99.90;;;;;;5127138;27;20040;-78
2023/03/17 04:53:45;;;;;;;6.47;2.33;;;8.70;99.90;;;;;;5128680;27;20546;-78
2023/03/17 04:56:11;;;;;;;3.35;2.00;;;8.70;99.90;;;;;;5126651;27;20057;-78
2023/03/17 04:58:37;;;;;;;7.13;2.10;;;8.60;99.90;;;;;;5109832;27;20039;-78
2023/03/17 05:01:03;;;;;;;3.92;2.17;;;8.70;99.90;;;;;;5091694;27;20035;-78
2023/03/17 05:03:30;;;;;;;6.18;2.00;;;7.60;99.90;;;;;;5091968;27;20051;-78
2023/03/17 05:05:56;;;;;;;6.38;3.28;;;7.60;99.90;;;;;;5128038;27;20050;-78
2023/03/17 05:08:22;;;;;;;3.42;1.80;;;7.60;99.90;;;;;;5126414;27;20091;-78
2023/03/17 05:10:48;;;;;;;2.53;1.90;;;7.60;99.90;;;;;;5128449;27;20123;-78
2023/03/17 05:13:14;;;;;;;5.38;2.30;;;7.60;99.90;;;;;;5090730;27;20140;-78
2023/03/17 05:15:45;;;;;;;3.88;1.90;;;7.60;99.90;;;;;;5128172;27;20067;-78
2023/03/17 05:18:11;;;;;;;3.08;1.60;;;7.60;99.90;;;;;;5108777;27;20122;-77
2023/03/17 05:20:37;;;;;;;2.97;1.70;;;7.60;99.90;;;;;;5109140;27;20517;-78
2023/03/17 05:23:02;;;;;;;4.43;1.98;;;8.10;99.90;;;;;;5109764;27;20127;-78
2023/03/17 05:25:28;;;;;;;4.47;2.63;;;8.40;99.90;;;;;;5108530;27;20074;-77
2023/03/17 05:27:54;;;;;;;5.03;1.90;;;8.10;99.90;;;;;;5109892;27;20035;-77
2023/03/17 05:30:20;;;;;;;3.80;1.83;;;7.80;99.90;;;;;;5107456;27;20235;-77
2023/03/17 05:32:45;;;;;;;5.55;2.03;;;7.00;99.90;;;;;;5109219;27;20131;-77
2023/03/17 05:35:12;;;;;;;5.93;2.40;;;7.90;99.90;;;;;;5073841;27;20084;-77
2023/03/17 05:37:37;;;;;;;3.13;1.65;;;8.00;99.90;;;;;;5108514;27;20043;-77
2023/03/17 05:40:04;;;;;;;3.63;1.70;;;7.60;99.90;;;;;;5074861;27;20058;-77
2023/03/17 05:42:29;;;;;;;4.82;2.40;;;7.60;99.90;;;;;;5125966;27;20122;-77
2023/03/17 05:44:55;;;;;;;6.28;2.30;;;7.70;99.90;;;;;;5109300;27;20141;-79
2023/03/17 05:47:21;;;;;;;3.28;2.08;;;7.70;99.90;;;;;;5090040;27;20047;-77
2023/03/17 05:49:47;;;;;;;7.70;2.47;;;8.10;99.90;;;;;;5109323;27;20035;-78
2023/03/17 05:52:13;;;;;;;5.15;1.95;;;7.70;99.90;;;;;;5107793;27;20043;-77
2023/03/17 05:54:39;;;;;;;4.55;2.30;;;7.80;99.90;;;;;;5127088;27;20550;-78
2023/03/17 05:57:05;;;;;;;7.32;1.77;;;7.80;99.90;;;;;;5091600;27;20066;-77
2023/03/17 05:59:30;;;;;;;6.47;1.90;;;7.90;99.90;;;;;;5107148;27;20091;-78
2023/03/17 06:01:56;;;;;;;7.03;2.55;;;7.90;99.90;;;;;;5108484;27;20126;-79
2023/03/17 06:04:22;;;;;;;3.50;2.15;;;7.90;99.90;;;;;;5089360;27;20043;-78
2023/03/17 06:06:48;;;;;;;3.85;2.25;;;7.90;99.90;;;;;;5127413;27;20035;-79
2023/03/17 06:09:14;;;;;;;3.92;2.40;;;7.90;99.90;;;;;;5124979;27;20506;-78
2023/03/17 06:11:40;;;;;;;3.83;2.17;;;8.00;99.90;;;;;;5126673;27;20070;-78
2023/03/17 06:14:06;;;;;;;4.55;2.40;;;8.00;99.90;;;;;;5107953;27;20066;-79
2023/03/17 06:16:32;;;;;;;2.42;1.60;;;8.00;99.90;;;;;;5125844;27;20047;-79
2023/03/17 06:18:58;;;;;;;4.97;2.13;;;8.00;99.90;;;;;;5127379;27;20039;-78
2023/03/17 06:21:24;;;;;;;3.78;2.15;;;8.00;99.90;;;;;;5125344;27;20093;-78
2023/03/17 06:23:50;;;;;;;5.55;2.20;;;8.10;99.90;;;;;;5108588;27;20134;-78
2023/03/17 06:26:16;;;;;;;4.93;2.17;;;8.10;99.90;;;;;;5106258;27;20114;-78
2023/03/17 06:28:41;;;;;;;4.75;2.00;;;9.20;99.90;;;;;;5107870;28;20043;-77
2023/03/17 06:31:08;;;;;;;4.13;2.17;;;8.20;99.90;;;;;;5125854;27;20135;-79
2023/03/17 06:33:34;;;;;;;3.35;2.20;;;8.20;99.90;;;;;;5106351;27;20359;-79
2023/03/17 06:36:00;;;;;;;8.02;2.55;;;9.20;99.90;;;;;;5107861;27;20042;-81
2023/03/17 06:38:27;;;;;;;5.30;2.25;;;8.30;99.90;;;;;;5106122;27;20482;-79
2023/03/17 06:40:52;;;;;;;7.07;2.42;;;8.80;99.90;;;;;;5091626;27;20120;-79
2023/03/17 06:43:18;;;;;;;3.60;1.90;;;8.30;99.90;;;;;;5106215;27;20126;-80
2023/03/17 06:45:45;;;;;;;4.65;2.22;;;8.70;99.90;;;;;;5107829;28;20402;-79
2023/03/17 06:48:11;;;;;;;4.60;2.20;;;8.50;99.90;;;;;;5106984;28;20122;-79
2023/03/17 06:50:36;;;;;;;3.10;2.10;;;9.10;99.90;;;;;;5106867;27;20773;-81
2023/03/17 06:53:03;;;;;;;5.43;2.00;;;8.40;99.90;;;;;;5107781;27;20100;-80
2023/03/17 06:55:28;;;;;;;4.88;1.83;;;8.50;99.90;;;;;;5089048;28;20043;-77
2023/03/17 06:57:54;;;;;;;5.18;2.50;;;9.50;99.90;;;;;;5091491;28;20129;-76
2023/03/17 07:00:21;;;;;;;9.13;2.70;;;8.50;99.90;;;;;;5124393;28;20047;-76
2023/03/17 07:02:48;;;;;;;8.48;2.30;;;8.50;99.90;;;;;;5107924;28;20051;-76
2023/03/17 07:05:14;;;;;;;6.55;2.78;;;8.50;99.90;;;;;;5125826;28;20050;-76
2023/03/17 07:07:40;;;;;;;6.78;1.90;;;8.50;99.90;;;;;;5125795;28;20039;-76
2023/03/17 07:10:09;;;;;;;13.25;3.22;;;8.50;99.90;;;;;;5107433;28;20051;-76
2023/03/17 07:12:35;;;;;;;6.22;2.45;;;8.50;99.90;;;;;;5124712;28;20050;-77
2023/03/17 07:15:02;;;;;;;7.28;2.47;;;8.60;99.90;;;;;;5126444;28;20054;-76
2023/03/17 07:17:28;;;;;;;6.95;2.25;;;8.60;99.90;;;;;;5105746;28;20039;-76
2023/03/17 07:19:54;;;;;;;4.60;2.17;;;8.70;99.90;;;;;;5107853;28;20047;-76
2023/03/17 07:22:21;;;;;;;6.57;2.10;;;8.70;99.90;;;;;;5107381;28;20039;-76
2023/03/17 07:24:47;;;;;;;17.50;4.75;;;8.70;99.90;;;;;;5107733;28;20548;-76
2023/03/17 07:27:15;;;;;;;2.80;2.03;;;8.70;99.90;;;;;;5090826;28;20115;-75
2023/03/17 07:29:41;;;;;;;4.45;1.90;;;9.00;99.90;;;;;;5090401;28;20036;-75
2023/03/17 07:32:08;;;;;;;10.45;2.33;;;8.80;99.90;;;;;;5108610;28;20062;-76
2023/03/17 07:34:35;;;;;;;8.75;2.80;;;8.90;99.90;;;;;;5089655;28;20460;-76
2023/03/17 07:37:05;;;;;;;5.35;2.40;;;8.90;99.90;;;;;;5091246;28;20551;-76
2023/03/17 07:39:31;;;;;;;4.55;2.20;;;9.00;99.90;;;;;;5125329;28;20051;-76
2023/03/17 07:41:57;;;;;;;5.60;2.28;;;9.10;99.90;;;;;;5106117;28;20089;-77
2023/03/17 07:44:24;;;;;;;5.03;1.90;;;9.70;99.90;;;;;;5127080;27;20115;-76
2023/03/17 07:46:50;;;;;;;5.43;2.40;;;9.40;99.90;;;;;;5128222;27;20035;-75
2023/03/17 07:49:17;;;;;;;6.40;2.65;;;9.50;99.90;;;;;;5130021;27;20049;-76
2023/03/17 07:51:42;;;;;;;4.13;2.35;;;9.60;99.90;;;;;;5092551;27;20112;-76
2023/03/17 07:54:12;;;;;;;7.43;3.10;;;9.80;99.90;;;;;;5111244;27;20051;-76
2023/03/17 07:56:39;;;;;;;6.38;2.78;;;9.90;99.90;;;;;;5110259;27;20085;-76
2023/03/17 07:59:09;;;;;;;5.38;2.67;;;10.10;99.90;;;;;;5110138;27;20099;-76
2023/03/17 08:01:36;;;;;;;6.43;2.50;;;10.10;99.90;;;;;;5129486;27;20054;-76
2023/03/17 08:04:03;;;;;;;5.25;2.63;;;10.10;99.90;;;;;;5109312;27;20042;-78
2023/03/17 08:06:30;;;;;;;5.88;2.50;;;10.10;99.90;;;;;;5094188;27;20053;-76
2023/03/17 08:08:55;;;;;;;5.72;2.53;;;10.20;99.90;;;;;;5092362;27;20164;-76
2023/03/17 08:11:22;;;;;;;5.03;2.35;;;10.20;99.90;;;;;;5110637;27;20055;-79
2023/03/17 08:13:48;;;;;;;10.43;2.35;;;10.20;99.90;;;;;;5109587;27;20059;-79
2023/03/17 08:16:14;;;;;;;4.15;2.13;;;10.20;99.90;;;;;;5093049;27;20090;-78
2023/03/17 08:18:40;;;;;;;4.55;2.10;;;10.30;99.90;;;;;;5093628;27;20035;-75
2023/03/17 08:21:06;;;;;;;4.05;1.90;;;10.30;99.90;;;;;;5127609;27;20088;-76
2023/03/17 08:23:32;;;;;;;5.35;2.72;;;10.40;99.90;;;;;;5093583;27;20039;-76
2023/03/17 08:25:59;;;;;;;7.15;2.25;;;10.40;99.90;;;;;;5126782;27;20047;-77
2023/03/17 08:28:25;;;;;;;6.97;2.08;;;10.50;99.90;;;;;;5093897;27;20079;-77
2023/03/17 08:30:51;;;;;;;5.97;2.10;;;10.30;99.90;;;;;;5128255;27;20124;-76
2023/03/17 08:33:17;;;;;;;5.28;2.22;;;10.50;99.90;;;;;;5128022;27;20079;-76
2023/03/17 08:35:43;;;;;;;7.97;2.90;;;10.50;99.90;;;;;;5110193;27;20050;-76
2023/03/17 08:38:10;;;;;;;5.38;2.42;;;10.50;99.90;;;;;;5074963;27;20043;-77
2023/03/17 08:40:37;;;;;;;7.82;2.45;;;10.50;99.90;;;;;;5093639;27;20155;-77
2023/03/17 08:43:03;;;;;;;6.57;2.00;;;10.60;99.90;;;;;;5107843;27;20089;-76
2023/03/17 08:45:29;;;;;;;8.55;2.65;;;10.50;99.90;;;;;;5128704;27;20028;-76
2023/03/17 08:47:55;;;;;;;7.25;2.38;;;10.50;99.90;;;;;;5091950;27;20035;-76
2023/03/17 08:50:22;;;;;;;5.18;2.00;;;10.50;99.90;;;;;;5075009;27;20043;-76
2023/03/17 08:52:50;;;;;;;3.80;2.10;;;10.70;99.90;;;;;;5109622;27;20078;-79
2023/03/17 08:55:17;;;;;;;6.10;2.08;;;10.70;99.90;;;;;;5126365;27;20043;-78
2023/03/17 08:57:43;;;;;;;7.07;2.10;;;10.60;99.90;;;;;;5110104;27;20122;-78
2023/03/17 09:00:12;;;;;;;4.40;1.80;;;10.80;99.90;;;;;;5107563;27;20479;-78
2023/03/17 09:02:42;;;;;;;5.88;2.47;;;10.80;99.90;;;;;;5109311;27;20032;-79
2023/03/17 09:05:11;;;;;;;6.43;2.40;;;10.80;99.90;;;;;;5127782;27;20427;-79
2023/03/17 09:07:37;;;;;;;3.58;2.00;;;10.90;99.90;;;;;;5075016;27;20043;-78
2023/03/17 09:10:04;;;;;;;6.90;1.95;;;11.00;99.90;;;;;;5109383;27;20055;-77
2023/03/17 09:12:29;;;;;;;3.88;2.40;;;11.10;99.90;;;;;;5126350;27;20062;-77
2023/03/17 09:14:56;;;;;;;4.97;2.17;;;11.20;99.90;;;;;;5109469;27;20548;-78
2023/03/17 09:17:22;;;;;;;4.07;2.30;;;11.30;99.90;;;;;;5107211;27;20516;-77
2023/03/17 09:19:48;;;;;;;5.22;2.47;;;11.30;99.90;;;;;;5092746;27;20035;-78
2023/03/17 09:22:17;;;;;;;5.82;2.22;;;11.40;99.90;;;;;;5108331;27;20048;-78
2023/03/17 09:24:45;;;;;;;4.82;2.35;;;11.50;99.90;;;;;;5091299;27;20049;-78
2023/03/17 09:27:11;;;;;;;6.35;2.97;;;11.70;99.90;;;;;;5109680;27;20051;-76
2023/03/17 09:29:37;;;;;;;5.43;2.20;;;11.80;99.90;;;;;;5126155;27;20420;-76
2023/03/17 09:32:03;;;;;;;4.32;2.40;;;11.90;99.90;;;;;;5109081;27;20494;-76
2023/03/17 09:34:30;;;;;;;5.82;2.00;;;11.90;99.90;;;;;;5107044;27;20046;-76
2023/03/17 09:36:56;;;;;;;7.85;2.20;;;11.90;99.90;;;;;;5091908;27;20045;-75
2023/03/17 09:39:22;;;;;;;4.97;1.98;;;12.00;99.90;;;;;;5090959;27;20046;-76
2023/03/17 09:42:23;;;;;;;6.05;2.40;;;12.10;99.90;;;;;;5107745;27;20050;-77
2023/03/17 09:45:24;;;;;;;10.32;2.60;;;12.30;99.90;;;;;;5109494;27;20039;-76
2023/03/17 09:47:59;;;;;;;18.33;2.45;;;12.40;99.90;;;;;;5107654;27;20130;-77
2023/03/17 09:50:38;;;;;;;7.20;2.40;;;12.60;99.90;;;;;;5108130;27;20050;-76
2023/03/17 09:53:17;;;;;;;7.82;2.47;;;12.70;99.90;;;;;;5109022;27;20047;-76
2023/03/17 09:55:43;;;;;;;6.95;2.03;;;12.90;99.90;;;;;;5106491;27;20066;-76
2023/03/17 09:58:10;;;;;;;4.63;2.58;;;12.90;99.90;;;;;;5108817;27;20055;-76
2023/03/17 10:00:36;;;;;;;5.88;2.70;;;13.00;99.90;;;;;;5126133;27;20042;-76
2023/03/17 10:03:02;;;;;;;9.27;2.90;;;13.10;99.90;;;;;;5108168;27;20047;-76
2023/03/17 10:05:30;;;;;;;5.00;2.30;;;13.20;99.90;;;;;;5108316;27;20376;-78
2023/03/17 10:08:11;;;;;;;6.65;2.53;;;13.30;99.90;;;;;;5106677;27;20154;-76
2023/03/17 10:10:48;;;;;;;8.95;2.65;;;13.30;99.90;;;;;;5108726;27;20051;-76
2023/03/17 10:13:41;;;;;;;6.38;3.25;;;13.10;99.90;;;;;;5106528;27;20107;-76
2023/03/17 10:16:11;;;;;;;5.80;2.63;;;13.20;99.90;;;;;;5107743;27;20122;-76
2023/03/17 10:18:47;;;;;;;6.20;2.45;;;13.30;99.90;;;;;;5108700;27;20055;-77
2023/03/17 10:21:19;;;;;;;7.13;2.70;;;13.70;99.90;;;;;;5106524;27;20626;-76
2023/03/17 10:23:45;;;;;;;6.65;2.80;;;13.90;99.90;;;;;;5108660;27;20047;-78
2023/03/17 10:26:29;;;;;;;4.45;2.33;;;14.20;99.90;;;;;;5106578;27;20352;-78
2023/03/17 10:28:55;;;;;;;6.60;2.53;;;14.30;99.90;;;;;;5125549;27;20054;-77
2023/03/17 10:31:31;;;;;;;8.10;2.45;;;14.20;99.90;;;;;;5107921;27;20047;-77
2023/03/17 10:34:32;;;;;;;7.97;2.08;;;14.20;99.90;;;;;;5105960;27;20055;-77
2023/03/17 10:37:13;;;;;;;5.28;2.60;;;14.20;99.90;;;;;;5107430;27;20459;-77
2023/03/17 10:39:51;;;;;;;7.38;2.58;;;14.40;99.90;;;;;;5126513;27;20140;-77
2023/03/17 10:42:20;;;;;;;5.97;2.60;;;14.50;99.90;;;;;;5106453;27;20079;-77
2023/03/17 10:44:56;;;;;;;5.40;2.50;;;14.70;99.90;;;;;;5108538;28;20054;-77
2023/03/17 10:47:47;;;;;;;6.40;2.72;;;14.80;99.90;;;;;;5106395;27;20096;-77
2023/03/17 10:50:20;;;;;;;7.57;2.92;;;15.00;99.90;;;;;;5107041;27;20043;-77
2023/03/17 10:52:51;;;;;;;6.28;2.80;;;15.20;99.90;;;;;;5126703;27;20074;-77
2023/03/17 10:55:21;;;;;;;6.85;2.85;;;15.30;99.90;;;;;;5089813;27;20046;-77
2023/03/17 10:58:04;;;;;;;7.55;3.25;;;15.30;99.90;;;;;;5091274;28;20475;-76
2023/03/17 11:00:34;;;;;;;5.63;2.95;;;15.40;99.90;;;;;;5107062;28;20124;-77
2023/03/17 11:03:16;;;;;;;8.57;2.78;;;15.60;99.90;;;;;;5107580;28;20051;-77
2023/03/17 11:06:05;;;;;;;5.05;2.67;;;15.70;99.90;;;;;;5090868;28;20089;-76
2023/03/17 11:08:44;;;;;;;6.25;2.63;;;15.80;99.60;;;;;;5106074;28;20047;-76
2023/03/17 11:11:24;;;;;;;12.25;3.88;;;15.90;99.90;;;;;;5092428;28;20055;-76
2023/03/17 11:13:50;;;;;;;8.30;2.95;;;16.10;99.40;;;;;;5107108;28;20051;-77
2023/03/17 11:16:22;;;;;;;7.60;2.97;;;16.10;99.50;;;;;;5106117;28;20153;-77
2023/03/17 11:18:52;;;;;;;6.03;2.80;;;16.10;99.40;;;;;;5128505;27;20043;-77
2023/03/17 11:21:20;;;;;;;6.13;3.13;;;16.10;99.50;;;;;;5109732;27;20442;-77
2023/03/17 11:24:03;;;;;;;12.05;3.45;;;16.30;99.50;;;;;;5130475;27;20040;-77
2023/03/17 11:26:29;;;;;;;7.90;3.17;;;16.50;98.80;;;;;;5110699;27;20054;-77
2023/03/17 11:29:43;;;;;;;5.78;3.50;;;16.50;98.70;;;;;;5110239;27;20047;-77
2023/03/17 11:32:20;;;;;;;4.40;2.60;;;16.60;98.50;;;;;;5110947;27;20074;-77
2023/03/17 11:35:25;;;;;;;8.63;3.28;;;16.70;98.30;;;;;;5093010;27;20095;-78
2023/03/17 11:37:56;;;;;;;10.98;2.83;;;16.80;98.30;;;;;;5091910;27;20051;-77
2023/03/17 11:40:30;;;;;;;11.52;3.50;;;16.90;97.90;;;;;;5094377;27;20104;-77
2023/03/17 11:43:17;;;;;;;5.68;2.85;;;17.00;97.50;;;;;;5127910;27;20505;-77
2023/03/17 11:45:51;;;;;;;10.13;3.28;;;17.00;97.70;;;;;;5129166;27;20057;-77
2023/03/17 11:48:41;;;;;;;7.85;3.05;;;17.10;97.60;;;;;;5111234;27;20035;-78
2023/03/17 11:51:29;;;;;;;4.47;2.35;;;17.20;97.00;;;;;;5092038;27;20047;-78
2023/03/17 11:54:01;;;;;;;6.78;2.92;;;17.30;96.80;;;;;;5111059;27;20565;-77
2023/03/17 11:56:36;;;;;;;;;;;17.40;97.20;;;;;;5111489;27;20043;-77
2023/03/17 11:59:10;;;;;;;7.00;2.60;;;17.40;96.40;;;;;;5110103;27;19966;-76
2023/03/17 12:01:55;;;;;;;4.28;2.92;;;17.50;96.90;;;;;;5129629;27;20086;-78
2023/03/17 12:04:36;;;;;;;9.35;3.40;;;17.60;97.00;;;;;;5109075;27;20295;-77
2023/03/17 12:07:32;;;;;;;8.65;3.45;;;17.70;96.70;;;;;;5128972;27;20049;-77
2023/03/17 12:10:29;;;;;;;5.93;3.63;;;17.80;95.80;;;;;;5105221;27;20108;-77
2023/03/17 12:13:07;;;;;;;7.38;3.50;;;17.80;95.30;;;;;;5127168;27;20559;-76
2023/03/17 12:15:47;;;;;;;8.77;3.65;;;17.80;95.70;;;;;;5110218;27;20043;-77
2023/03/17 12:18:37;;;;;;;7.85;3.53;;;17.80;95.40;;;;;;5110410;27;20131;-77
2023/03/17 12:21:22;;;;;;;12.48;4.22;;;17.90;94.60;;;;;;5091464;27;20076;-77
2023/03/17 12:24:01;;;;;;;6.97;3.58;;;17.80;94.60;;;;;;5110565;27;20083;-79
2023/03/17 12:26:50;;;;;;;5.57;3.58;;;17.80;94.50;;;;;;5093689;27;20051;-80
2023/03/17 12:29:39;;;;;;;10.52;4.05;;;17.70;94.40;;;;;;5108541;27;20051;-79
2023/03/17 12:32:19;;;;;;;6.50;3.33;;;17.70;94.70;;;;;;5128610;27;20107;-79
2023/03/17 12:34:55;;;;;;;11.07;4.35;;;17.00;94.60;;;;;;5127476;27;20087;-80
2023/03/17 12:37:23;;;;;;;7.00;4.07;;;17.60;94.90;;;;;;5092366;27;20124;-78
2023/03/17 12:40:00;;;;;;;8.20;4.00;;;17.60;95.00;;;;;;5129084;27;20047;-77
2023/03/17 12:42:53;;;;;;;10.07;4.43;;;17.70;94.90;;;;;;5108258;27;20046;-78
2023/03/17 12:45:29;;;;;;;8.88;3.65;;;17.80;94.40;;;;;;5093711;27;20378;-78
2023/03/17 12:48:11;;;;;;;9.13;4.38;;;17.80;94.90;;;;;;5128280;27;20061;-78
2023/03/17 12:50:46;;;;;;;8.35;4.38;;;17.90;95.00;;;;;;5108877;27;20046;-78
2023/03/17 12:53:23;;;;;;;9.43;4.32;;;17.90;94.90;;;;;;5112673;27;20039;-78
2023/03/17 12:55:51;;;;;;;8.57;3.92;;;17.90;94.90;;;;;;5134025;27;20043;-78
2023/03/17 12:58:37;;;;;;;6.10;4.10;;;18.00;95.00;;;;;;5098323;27;20181;-80
2023/03/17 13:01:19;;;;;;;6.60;4.10;;;18.00;94.20;;;;;;5097324;27;20061;-78
2023/03/17 13:03:56;;;;;;;9.02;4.53;;;18.10;94.20;;;;;;5094169;27;20172;-78
2023/03/17 13:06:23;;;;;;;6.22;3.88;;;18.10;94.50;;;;;;5129265;27;20039;-78
2023/03/17 13:08:51;;;;;;;7.50;5.00;;;18.10;94.50;;;;;;5091305;27;20454;-77